createdAt,value
2022-09-11T00:02:10.320Z,24.10
2022-09-11T00:04:57.341Z,24.00
2022-09-11T00:07:44.408Z,24.00
2022-09-11T00:10:37.045Z,24.00
2022-09-11T00:13:25.091Z,24.00
2022-09-11T00:16:23.172Z,24.00
2022-09-11T00:19:13.735Z,24.00
2022-09-11T00:22:01.358Z,24.10
2022-09-11T00:24:50.149Z,24.00
2022-09-11T00:27:38.651Z,24.00
2022-09-11T00:30:25.746Z,24.00
2022-09-11T00:33:13.086Z,24.00
2022-09-11T00:36:03.944Z,24.10
2022-09-11T00:38:52.202Z,24.10
2022-09-11T00:41:41.893Z,24.00
2022-09-11T00:45:06.541Z,24.10
2022-09-11T00:47:55.564Z,24.10
2022-09-11T00:50:45.440Z,24.10
2022-09-11T00:53:37.397Z,24.10
2022-09-11T00:56:29.388Z,24.10
2022-09-11T00:59:17.275Z,24.10
2022-09-11T01:02:08.113Z,24.10
2022-09-11T01:04:55.617Z,24.10
2022-09-11T01:07:43.589Z,24.10
2022-09-11T01:10:42.475Z,24.10
2022-09-11T01:13:38.337Z,24.10
2022-09-11T01:16:38.186Z,24.10
2022-09-11T01:19:48.041Z,24.10
2022-09-11T01:23:09.436Z,24.10
2022-09-11T01:26:20.209Z,24.10
2022-09-11T01:29:19.012Z,24.10
2022-09-11T01:32:12.138Z,24.10
2022-09-11T01:35:07.081Z,24.10
2022-09-11T01:37:58.941Z,24.10
2022-09-11T01:40:54.081Z,24.10
2022-09-11T01:43:47.860Z,24.10
2022-09-11T01:46:41.111Z,24.10
2022-09-11T01:49:36.235Z,24.10
2022-09-11T01:52:28.830Z,24.10
2022-09-11T01:55:21.993Z,24.10
2022-09-11T01:58:13.184Z,24.10
2022-09-11T02:01:09.702Z,24.10
2022-09-11T02:04:07.277Z,24.10
2022-09-11T02:07:04.021Z,24.10
2022-09-11T02:09:57.382Z,24.10
2022-09-11T02:12:54.250Z,24.10
2022-09-11T02:15:47.745Z,24.10
2022-09-11T02:18:44.101Z,24.10
2022-09-11T02:21:34.109Z,24.10
2022-09-11T02:24:23.825Z,24.10
2022-09-11T02:27:16.984Z,24.10
2022-09-11T02:30:05.493Z,24.10
2022-09-11T02:32:57.022Z,24.00
2022-09-11T02:35:51.335Z,24.00
2022-09-11T02:38:48.901Z,24.00
2022-09-11T02:41:51.892Z,24.10
2022-09-11T02:44:46.776Z,24.00
2022-09-11T02:47:45.039Z,24.00
2022-09-11T02:50:42.298Z,24.00
2022-09-11T02:53:37.306Z,24.00
2022-09-11T02:56:38.200Z,24.00
2022-09-11T02:59:30.007Z,24.10
2022-09-11T03:02:20.470Z,24.00
2022-09-11T03:05:10.949Z,24.00
2022-09-11T03:08:00.591Z,24.00
2022-09-11T03:10:50.030Z,24.00
2022-09-11T03:13:39.273Z,24.00
2022-09-11T03:16:27.654Z,24.00
2022-09-11T03:19:14.731Z,24.00
2022-09-11T03:22:02.995Z,24.00
2022-09-11T03:24:50.053Z,24.00
2022-09-11T03:27:39.515Z,24.00
2022-09-11T03:30:29.708Z,24.00
2022-09-11T03:33:18.773Z,24.00
2022-09-11T03:36:06.430Z,24.00
2022-09-11T03:38:55.230Z,23.90
2022-09-11T03:41:42.775Z,24.00
2022-09-11T03:44:30.005Z,23.90
2022-09-11T03:47:20.408Z,23.90
2022-09-11T03:50:08.833Z,23.90
2022-09-11T03:52:56.326Z,23.90
2022-09-11T03:55:43.607Z,24.00
2022-09-11T03:58:30.934Z,23.90
2022-09-11T04:01:19.482Z,23.90
2022-09-11T04:04:09.409Z,23.90
2022-09-11T04:07:01.021Z,23.90
2022-09-11T04:09:49.225Z,24.00
2022-09-11T04:12:36.676Z,23.90
2022-09-11T04:15:23.966Z,23.90
2022-09-11T04:18:11.725Z,23.90
2022-09-11T04:21:04.797Z,23.90
2022-09-11T04:23:55.709Z,23.90
2022-09-11T04:26:44.255Z,23.90
2022-09-11T04:29:57.617Z,23.90
2022-09-11T04:32:46.302Z,23.90
2022-09-11T04:35:34.426Z,24.00
2022-09-11T04:38:23.955Z,23.90
2022-09-11T04:41:11.416Z,23.90
2022-09-11T04:44:05.123Z,23.90
2022-09-11T04:46:54.959Z,23.90
2022-09-11T04:49:43.594Z,23.90
2022-09-11T04:52:31.569Z,23.90
2022-09-11T04:55:20.321Z,23.90
2022-09-11T04:58:10.160Z,23.90
2022-09-11T05:00:57.524Z,23.90
2022-09-11T05:03:45.175Z,23.90
2022-09-11T05:06:32.908Z,23.90
2022-09-11T05:09:23.336Z,23.90
2022-09-11T05:12:11.931Z,23.90
2022-09-11T05:14:59.478Z,23.90
2022-09-11T05:17:48.463Z,23.90
2022-09-11T05:20:41.607Z,23.90
2022-09-11T05:23:29.981Z,23.90
2022-09-11T05:26:19.077Z,24.00
2022-09-11T05:29:10.247Z,23.90
2022-09-11T05:32:04.078Z,23.90
2022-09-11T05:34:51.479Z,24.00
2022-09-11T05:37:41.419Z,23.90
2022-09-11T05:40:29.528Z,24.00
2022-09-11T05:43:20.061Z,23.90
2022-09-11T05:46:14.966Z,23.90
2022-09-11T05:49:02.605Z,24.00
2022-09-11T05:51:49.799Z,23.90
2022-09-11T05:54:37.225Z,23.90
2022-09-11T05:57:25.708Z,23.90
2022-09-11T06:00:15.092Z,24.00
2022-09-11T06:03:15.397Z,23.90
2022-09-11T06:06:05.064Z,23.90
2022-09-11T06:08:53.065Z,24.00
2022-09-11T06:11:40.940Z,23.90
2022-09-11T06:14:28.578Z,23.90
2022-09-11T06:17:15.615Z,23.90
2022-09-11T06:20:05.021Z,23.90
2022-09-11T06:22:52.638Z,23.90
2022-09-11T06:25:39.961Z,23.90
2022-09-11T06:28:27.446Z,23.90
2022-09-11T06:31:17.419Z,23.90
2022-09-11T06:34:06.151Z,23.90
2022-09-11T06:36:54.742Z,23.90
2022-09-11T06:39:42.373Z,23.90
2022-09-11T06:42:34.333Z,24.00
2022-09-11T06:45:22.233Z,24.00
2022-09-11T06:48:11.875Z,24.00
2022-09-11T06:51:03.646Z,24.00
2022-09-11T06:53:57.735Z,24.00
2022-09-11T06:56:47.616Z,24.00
2022-09-11T06:59:36.315Z,24.00
2022-09-11T07:02:23.323Z,24.00
2022-09-11T07:05:11.984Z,24.00
2022-09-11T07:07:59.925Z,24.00
2022-09-11T07:10:52.496Z,24.00
2022-09-11T07:13:40.649Z,24.00
2022-09-11T07:16:29.139Z,24.00
2022-09-11T07:19:18.245Z,24.00
2022-09-11T07:22:05.347Z,24.00
2022-09-11T07:24:55.220Z,24.00
2022-09-11T07:27:44.212Z,24.10
2022-09-11T07:30:32.563Z,24.10
2022-09-11T07:33:20.474Z,24.10
2022-09-11T07:36:12.096Z,24.10
2022-09-11T07:39:03.636Z,24.10
2022-09-11T07:42:05.009Z,24.10
2022-09-11T07:44:55.587Z,24.10
2022-09-11T07:47:42.564Z,24.10
2022-09-11T07:50:30.540Z,24.10
2022-09-11T07:53:18.349Z,24.10
2022-09-11T07:56:08.929Z,24.10
2022-09-11T07:58:57.321Z,24.10
2022-09-11T08:01:46.502Z,24.10
2022-09-11T08:04:36.012Z,24.10
2022-09-11T08:07:24.141Z,24.10
2022-09-11T08:10:26.518Z,24.10
2022-09-11T08:13:14.335Z,24.10
2022-09-11T08:16:05.296Z,24.20
2022-09-11T08:18:54.854Z,24.20
2022-09-11T08:21:43.697Z,24.20
2022-09-11T08:24:32.045Z,24.20
2022-09-11T08:27:21.065Z,24.20
2022-09-11T08:30:10.515Z,24.30
2022-09-11T08:32:57.627Z,24.30
2022-09-11T08:35:46.683Z,24.30
2022-09-11T08:38:35.241Z,24.30
2022-09-11T08:41:41.188Z,24.30
2022-09-11T08:44:35.142Z,24.30
2022-09-11T08:47:38.459Z,24.30
2022-09-11T08:50:29.261Z,24.40
2022-09-11T08:53:20.859Z,24.40
2022-09-11T08:56:13.761Z,24.40
2022-09-11T08:59:17.843Z,24.40
2022-09-11T09:02:24.588Z,24.40
2022-09-11T09:05:22.258Z,24.40
2022-09-11T09:08:25.404Z,24.40
2022-09-11T09:11:24.264Z,24.40
2022-09-11T09:14:34.906Z,24.50
2022-09-11T09:17:27.900Z,24.50
2022-09-11T09:20:22.654Z,24.50
2022-09-11T09:23:20.847Z,24.50
2022-09-11T09:26:17.623Z,24.60
2022-09-11T09:29:11.594Z,24.60
2022-09-11T09:32:06.484Z,24.70
2022-09-11T09:34:59.197Z,24.70
2022-09-11T09:37:46.902Z,24.80
2022-09-11T09:40:37.478Z,24.80
2022-09-11T09:43:37.404Z,24.90
2022-09-11T09:46:36.120Z,24.90
2022-09-11T09:49:28.010Z,24.90
2022-09-11T09:52:22.288Z,25.00
2022-09-11T09:55:17.606Z,25.00
2022-09-11T09:58:07.461Z,25.00
2022-09-11T10:00:54.749Z,25.00
2022-09-11T10:03:41.945Z,25.00
2022-09-11T10:06:29.335Z,25.00
2022-09-11T10:09:34.675Z,25.00
2022-09-11T10:12:25.446Z,25.00
2022-09-11T10:15:22.017Z,25.00
2022-09-11T10:18:37.720Z,25.00
2022-09-11T10:21:33.423Z,24.90
2022-09-11T10:24:26.288Z,24.90
2022-09-11T10:27:16.771Z,24.90
2022-09-11T10:30:26.991Z,24.90
2022-09-11T10:33:26.877Z,24.90
2022-09-11T10:36:13.976Z,24.90
2022-09-11T10:39:02.328Z,24.90
2022-09-11T10:41:51.672Z,24.80
2022-09-11T10:44:43.557Z,24.80
2022-09-11T10:47:34.589Z,24.80
2022-09-11T10:50:25.697Z,24.80
2022-09-11T10:53:21.545Z,24.80
2022-09-11T10:56:11.036Z,24.80
2022-09-11T10:59:05.360Z,24.80
2022-09-11T11:01:53.790Z,24.70
2022-09-11T11:04:42.508Z,24.70
2022-09-11T11:08:07.739Z,24.70
2022-09-11T11:11:14.136Z,24.70
2022-09-11T11:14:48.103Z,24.70
2022-09-11T11:17:43.460Z,24.70
2022-09-11T11:20:39.027Z,24.70
2022-09-11T11:23:48.284Z,24.70
2022-09-11T11:26:51.179Z,24.70
2022-09-11T11:29:54.710Z,24.80
2022-09-11T11:33:07.834Z,24.90
2022-09-11T11:36:04.506Z,24.90
2022-09-11T11:39:00.443Z,25.00
2022-09-11T11:41:51.688Z,25.10
2022-09-11T11:44:47.408Z,25.10
2022-09-11T11:47:42.500Z,25.20
2022-09-11T11:50:37.555Z,25.20
2022-09-11T11:53:30.021Z,25.20
2022-09-11T11:56:30.153Z,25.20
2022-09-11T11:59:25.524Z,25.20
2022-09-11T12:02:22.187Z,25.20
2022-09-11T12:05:14.942Z,25.20
2022-09-11T12:08:02.552Z,25.20
2022-09-11T12:10:58.999Z,25.20
2022-09-11T12:13:49.268Z,25.20
2022-09-11T12:16:37.811Z,25.20
2022-09-11T12:19:26.366Z,25.20
2022-09-11T12:22:14.560Z,25.20
2022-09-11T12:25:01.639Z,25.20
2022-09-11T12:28:09.502Z,25.20
2022-09-11T12:31:09.158Z,25.20
2022-09-11T12:33:57.248Z,25.20
2022-09-11T12:36:55.003Z,25.20
2022-09-11T12:39:54.171Z,25.20
2022-09-11T12:42:58.668Z,25.20
2022-09-11T12:45:48.325Z,25.20
2022-09-11T12:48:39.787Z,25.20
2022-09-11T12:51:30.047Z,25.20
2022-09-11T12:54:23.376Z,25.20
2022-09-11T12:57:19.225Z,25.20
2022-09-11T13:00:21.712Z,25.20
2022-09-11T13:03:19.655Z,25.20
2022-09-11T13:06:10.710Z,25.20
2022-09-11T13:09:01.037Z,25.20
2022-09-11T13:11:50.507Z,25.20
2022-09-11T13:14:53.267Z,25.20
2022-09-11T13:17:49.952Z,25.20
2022-09-11T13:20:38.083Z,25.30
2022-09-11T13:23:25.325Z,25.30
2022-09-11T13:26:22.702Z,25.30
2022-09-11T13:29:15.464Z,25.30
2022-09-11T13:32:11.370Z,25.30
2022-09-11T13:35:05.421Z,25.30
2022-09-11T13:37:58.262Z,25.30
2022-09-11T13:40:49.871Z,25.30
2022-09-11T13:43:41.112Z,25.30
2022-09-11T13:46:31.489Z,25.30
2022-09-11T13:49:32.331Z,25.30
2022-09-11T13:52:23.351Z,25.30
2022-09-11T13:55:13.027Z,25.30
2022-09-11T13:58:02.402Z,25.20
2022-09-11T14:00:52.723Z,25.20
2022-09-11T14:03:46.143Z,25.20
2022-09-11T14:06:34.529Z,25.20
2022-09-11T14:09:24.253Z,25.20
2022-09-11T14:12:11.633Z,25.20
2022-09-11T14:15:04.635Z,25.20
2022-09-11T14:17:52.456Z,25.20
2022-09-11T14:20:43.800Z,25.20
2022-09-11T14:23:31.499Z,25.20
2022-09-11T14:26:21.823Z,25.30
2022-09-11T14:29:28.612Z,25.30
2022-09-11T14:32:33.139Z,25.30
2022-09-11T14:35:20.413Z,25.30
2022-09-11T14:38:09.307Z,25.30
2022-09-11T14:41:00.880Z,25.30
2022-09-11T14:43:49.766Z,25.30
2022-09-11T14:46:37.046Z,25.40
2022-09-11T14:49:25.239Z,25.40
2022-09-11T14:52:15.828Z,25.40
2022-09-11T14:55:03.286Z,25.40
2022-09-11T14:57:50.312Z,25.40
2022-09-11T15:00:38.770Z,25.40
2022-09-11T15:03:26.627Z,25.40
2022-09-11T15:06:20.542Z,25.40
2022-09-11T15:09:07.566Z,25.40
2022-09-11T15:11:54.668Z,25.40
2022-09-11T15:14:56.274Z,25.40
2022-09-11T15:17:46.207Z,25.40
2022-09-11T15:20:33.501Z,25.40
2022-09-11T15:23:20.875Z,25.40
2022-09-11T15:26:08.388Z,25.40
2022-09-11T15:28:55.752Z,25.40
2022-09-11T15:31:43.077Z,25.40
2022-09-11T15:34:33.254Z,25.40
2022-09-11T15:37:25.550Z,25.40
2022-09-11T15:40:13.162Z,25.40
2022-09-11T15:43:00.321Z,25.40
2022-09-11T15:45:47.408Z,25.40
2022-09-11T15:48:34.661Z,25.40
2022-09-11T15:51:24.825Z,25.40
2022-09-11T15:54:13.592Z,25.40
2022-09-11T15:57:00.925Z,25.40
2022-09-11T15:59:48.032Z,25.40
2022-09-11T16:02:35.200Z,25.40
2022-09-11T16:05:23.077Z,25.40
2022-09-11T16:08:12.995Z,25.40
2022-09-11T16:11:05.234Z,25.40
2022-09-11T16:13:53.397Z,25.40
2022-09-11T16:16:40.386Z,25.40
2022-09-11T16:19:29.358Z,25.40
2022-09-11T16:22:16.735Z,25.40
2022-09-11T16:25:05.996Z,25.40
2022-09-11T16:27:53.512Z,25.40
2022-09-11T16:30:44.470Z,25.40
2022-09-11T16:33:35.506Z,25.40
2022-09-11T16:36:23.085Z,25.40
2022-09-11T16:39:13.040Z,25.40
2022-09-11T16:42:02.143Z,25.40
2022-09-11T16:44:50.175Z,25.40
2022-09-11T16:47:37.846Z,25.40
2022-09-11T16:50:25.201Z,25.40
2022-09-11T16:53:13.939Z,25.40
2022-09-11T16:56:04.961Z,25.30
2022-09-11T16:58:54.731Z,25.30
2022-09-11T17:01:41.870Z,25.30
2022-09-11T17:04:29.253Z,25.30
2022-09-11T17:07:16.314Z,25.30
2022-09-11T17:10:04.133Z,25.30
2022-09-11T17:12:51.644Z,25.30
2022-09-11T17:15:40.370Z,25.30
2022-09-11T17:18:27.627Z,25.30
2022-09-11T17:21:15.386Z,25.30
2022-09-11T17:24:03.708Z,25.20
2022-09-11T17:26:51.094Z,25.20
2022-09-11T17:29:43.812Z,25.20
2022-09-11T17:32:32.976Z,25.20
2022-09-11T17:35:20.471Z,25.20
2022-09-11T17:38:07.694Z,25.20
2022-09-11T17:41:01.802Z,25.20
2022-09-11T17:43:49.490Z,25.20
2022-09-11T17:46:36.843Z,25.20
2022-09-11T17:49:26.854Z,25.20
2022-09-11T17:52:15.571Z,25.20
2022-09-11T17:55:02.975Z,25.20
2022-09-11T17:57:54.455Z,25.20
2022-09-11T18:00:41.691Z,25.10
2022-09-11T18:03:31.078Z,25.10
2022-09-11T18:06:24.064Z,25.10
2022-09-11T18:09:16.321Z,25.10
2022-09-11T18:12:04.359Z,25.10
2022-09-11T18:14:54.913Z,25.10
2022-09-11T18:17:42.080Z,25.00
2022-09-11T18:20:29.182Z,25.00
2022-09-11T18:23:19.642Z,25.00
2022-09-11T18:26:09.690Z,25.00
2022-09-11T18:29:00.010Z,24.90
2022-09-11T18:31:50.154Z,25.00
2022-09-11T18:34:37.972Z,24.90
2022-09-11T18:37:25.604Z,24.90
2022-09-11T18:40:14.712Z,24.90
2022-09-11T18:43:02.202Z,24.90
2022-09-11T18:45:49.247Z,24.90
2022-09-11T18:48:36.315Z,24.80
2022-09-11T18:51:23.528Z,24.80
2022-09-11T18:54:15.487Z,24.80
2022-09-11T18:57:04.528Z,24.80
2022-09-11T18:59:52.352Z,24.80
2022-09-11T19:02:39.739Z,24.80
2022-09-11T19:05:27.845Z,24.70
2022-09-11T19:08:15.163Z,24.70
2022-09-11T19:11:07.827Z,24.70
2022-09-11T19:14:00.118Z,24.70
2022-09-11T19:16:49.169Z,24.70
2022-09-11T19:19:36.567Z,24.70
2022-09-11T19:22:24.810Z,24.70
2022-09-11T19:25:11.978Z,24.60
2022-09-11T19:28:00.306Z,24.60
2022-09-11T19:30:58.379Z,24.60
2022-09-11T19:33:45.787Z,24.60
2022-09-11T19:36:36.303Z,24.60
2022-09-11T19:39:23.456Z,24.60
2022-09-11T19:42:11.072Z,24.60
2022-09-11T19:45:00.209Z,24.60
2022-09-11T19:47:49.093Z,24.60
2022-09-11T19:50:37.015Z,24.60
2022-09-11T19:53:24.268Z,24.50
2022-09-11T19:56:13.236Z,24.50
2022-09-11T19:59:01.172Z,24.50
2022-09-11T20:01:48.337Z,24.50
2022-09-11T20:04:36.640Z,24.50
2022-09-11T20:07:23.911Z,24.50
2022-09-11T20:10:11.509Z,24.50
2022-09-11T20:13:00.440Z,24.50
2022-09-11T20:15:48.113Z,24.40
2022-09-11T20:18:35.526Z,24.40
2022-09-11T20:21:25.292Z,24.40
2022-09-11T20:24:12.662Z,24.40
2022-09-11T20:27:00.570Z,24.40
2022-09-11T20:29:47.574Z,24.40
2022-09-11T20:32:38.957Z,24.40
2022-09-11T20:35:26.426Z,24.40
2022-09-11T20:38:17.551Z,24.30
2022-09-11T20:41:08.588Z,24.30
2022-09-11T20:43:55.909Z,24.30
2022-09-11T20:46:43.762Z,24.30
2022-09-11T20:49:31.341Z,24.30
2022-09-11T20:52:18.883Z,24.30
2022-09-11T20:55:09.111Z,24.30
2022-09-11T20:57:56.423Z,24.30
2022-09-11T21:00:45.273Z,24.20
2022-09-11T21:03:32.977Z,24.30
2022-09-11T21:06:25.555Z,24.20
2022-09-11T21:09:13.812Z,24.20
2022-09-11T21:12:02.740Z,24.20
2022-09-11T21:14:50.050Z,24.20
2022-09-11T21:17:37.534Z,24.20
2022-09-11T21:20:24.665Z,24.20
2022-09-11T21:23:11.953Z,24.10
2022-09-11T21:25:59.307Z,24.20
2022-09-11T21:28:48.053Z,24.10
2022-09-11T21:31:36.270Z,24.10
2022-09-11T21:34:23.470Z,24.10
2022-09-11T21:37:10.657Z,24.10
2022-09-11T21:39:57.815Z,24.00
2022-09-11T21:42:44.825Z,24.00
2022-09-11T21:45:33.486Z,24.00
2022-09-11T21:48:20.655Z,24.00
2022-09-11T21:51:09.801Z,24.00
2022-09-11T21:53:59.181Z,24.00
2022-09-11T21:56:46.185Z,24.00
2022-09-11T21:59:33.853Z,24.00
2022-09-11T22:02:22.758Z,23.90
2022-09-11T22:05:10.337Z,23.90
2022-09-11T22:07:58.963Z,23.90
2022-09-11T22:10:48.396Z,23.90
2022-09-11T22:13:36.476Z,23.90
2022-09-11T22:16:23.701Z,23.90
2022-09-11T22:19:12.270Z,23.90
2022-09-11T22:21:59.677Z,23.80
2022-09-11T22:24:46.960Z,23.80
2022-09-11T22:27:34.489Z,23.80
2022-09-11T22:30:21.992Z,23.90
2022-09-11T22:33:09.945Z,23.90
2022-09-11T22:35:58.574Z,23.80
2022-09-11T22:38:45.911Z,23.80
2022-09-11T22:41:33.272Z,23.80
2022-09-11T22:44:20.949Z,23.80
2022-09-11T22:47:08.060Z,23.80
2022-09-11T22:49:55.392Z,23.80
2022-09-11T22:52:44.215Z,23.80
2022-09-11T22:55:31.347Z,23.70
2022-09-11T22:58:18.435Z,23.80
2022-09-11T23:01:08.070Z,23.70
2022-09-11T23:03:55.964Z,23.80
2022-09-11T23:07:00.653Z,23.70
2022-09-11T23:09:49.743Z,23.70
2022-09-11T23:12:37.416Z,23.70
2022-09-11T23:15:24.846Z,23.70
2022-09-11T23:18:12.281Z,23.70
2022-09-11T23:21:00.376Z,23.70
2022-09-11T23:23:54.325Z,23.70
2022-09-11T23:26:44.082Z,23.60
2022-09-11T23:29:31.419Z,23.60
2022-09-11T23:32:18.792Z,23.60
2022-09-11T23:35:06.849Z,23.60
2022-09-11T23:37:53.865Z,23.60
2022-09-11T23:40:41.003Z,23.60
2022-09-11T23:43:29.570Z,23.60
2022-09-11T23:46:17.250Z,23.60
2022-09-11T23:49:04.249Z,23.60
2022-09-11T23:51:51.452Z,23.60
2022-09-11T23:54:38.664Z,23.60
2022-09-11T23:57:25.577Z,23.50
